createdAt,value
2022-07-31T00:00:41.357Z,19.44
2022-07-31T00:03:08.784Z,19.42
2022-07-31T00:05:41.420Z,19.41
2022-07-31T00:08:09.022Z,19.38
2022-07-31T00:10:35.679Z,19.38
2022-07-31T00:13:02.479Z,19.35
2022-07-31T00:15:29.108Z,19.33
2022-07-31T00:17:55.819Z,19.32
2022-07-31T00:20:22.253Z,19.30
2022-07-31T00:22:49.234Z,19.30
2022-07-31T00:25:16.878Z,19.27
2022-07-31T00:27:43.956Z,19.27
2022-07-31T00:30:13.046Z,19.27
2022-07-31T00:32:39.807Z,19.25
2022-07-31T00:35:07.008Z,19.24
2022-07-31T00:37:38.157Z,19.25
2022-07-31T00:40:07.918Z,19.23
2022-07-31T00:42:34.920Z,19.19
2022-07-31T00:45:01.587Z,19.21
2022-07-31T00:47:28.288Z,19.21
2022-07-31T00:49:56.771Z,19.21
2022-07-31T00:52:23.247Z,19.20
2022-07-31T00:54:49.680Z,19.20
2022-07-31T00:57:16.147Z,19.18
2022-07-31T00:59:43.718Z,19.17
2022-07-31T01:02:11.290Z,19.14
2022-07-31T01:04:37.708Z,19.16
2022-07-31T01:07:08.217Z,19.09
2022-07-31T01:09:34.653Z,19.12
2022-07-31T01:12:22.732Z,19.14
2022-07-31T01:14:53.113Z,19.09
2022-07-31T01:17:22.245Z,19.06
2022-07-31T01:19:50.696Z,19.03
2022-07-31T01:22:33.578Z,19.02
2022-07-31T01:25:29.209Z,19.01
2022-07-31T01:28:24.268Z,18.98
2022-07-31T01:31:27.238Z,18.94
2022-07-31T01:34:03.764Z,18.88
2022-07-31T01:36:35.192Z,18.83
2022-07-31T01:39:03.605Z,18.79
2022-07-31T01:41:34.230Z,18.75
2022-07-31T01:44:04.457Z,18.73
2022-07-31T01:46:37.343Z,18.83
2022-07-31T01:49:09.831Z,18.65
2022-07-31T01:51:39.081Z,18.61
2022-07-31T01:54:06.347Z,18.58
2022-07-31T01:56:34.793Z,18.52
2022-07-31T01:59:02.877Z,18.50
2022-07-31T02:01:32.182Z,18.43
2022-07-31T02:04:01.328Z,18.42
2022-07-31T02:06:28.760Z,18.36
2022-07-31T02:08:56.540Z,18.33
2022-07-31T02:11:23.569Z,18.28
2022-07-31T02:13:51.583Z,18.20
2022-07-31T02:16:20.335Z,18.21
2022-07-31T02:18:49.683Z,18.17
2022-07-31T02:21:17.213Z,18.26
2022-07-31T02:23:43.705Z,18.12
2022-07-31T02:26:10.340Z,18.06
2022-07-31T02:28:40.651Z,18.00
2022-07-31T02:31:11.481Z,17.96
2022-07-31T02:33:40.078Z,17.90
2022-07-31T02:36:07.749Z,17.86
2022-07-31T02:38:36.108Z,17.81
2022-07-31T02:41:05.225Z,17.77
2022-07-31T02:43:35.230Z,17.74
2022-07-31T02:46:03.404Z,17.68
2022-07-31T02:48:30.890Z,17.62
2022-07-31T02:50:58.138Z,17.57
2022-07-31T02:53:24.908Z,17.50
2022-07-31T02:55:51.796Z,17.44
2022-07-31T02:58:18.493Z,17.40
2022-07-31T03:00:45.855Z,17.34
2022-07-31T03:03:12.614Z,17.29
2022-07-31T03:05:39.066Z,17.25
2022-07-31T03:08:05.699Z,17.22
2022-07-31T03:10:32.163Z,17.20
2022-07-31T03:13:00.677Z,17.15
2022-07-31T03:15:28.947Z,17.11
2022-07-31T03:17:55.734Z,17.04
2022-07-31T03:20:23.440Z,17.05
2022-07-31T03:22:50.718Z,17.02
2022-07-31T03:25:21.612Z,17.00
2022-07-31T03:27:56.014Z,16.99
2022-07-31T03:30:25.182Z,16.97
2022-07-31T03:32:56.167Z,16.97
2022-07-31T03:35:24.598Z,16.97
2022-07-31T03:37:51.565Z,16.98
2022-07-31T03:40:18.223Z,16.97
2022-07-31T03:42:45.401Z,16.95
2022-07-31T03:45:13.241Z,16.96
2022-07-31T03:47:40.057Z,16.95
2022-07-31T03:50:07.956Z,16.93
2022-07-31T03:52:34.916Z,16.91
2022-07-31T03:55:01.728Z,16.88
2022-07-31T03:57:33.989Z,16.87
2022-07-31T04:00:02.642Z,16.84
2022-07-31T04:02:29.879Z,16.81
2022-07-31T04:04:58.554Z,16.79
2022-07-31T04:07:25.102Z,16.79
2022-07-31T04:09:51.945Z,16.76
2022-07-31T04:12:18.523Z,16.74
2022-07-31T04:14:45.193Z,16.74
2022-07-31T04:17:11.879Z,16.73
2022-07-31T04:19:39.259Z,16.73
2022-07-31T04:22:06.713Z,16.71
2022-07-31T04:24:34.185Z,16.76
2022-07-31T04:27:00.662Z,16.74
2022-07-31T04:29:28.688Z,16.78
2022-07-31T04:31:55.855Z,16.82
2022-07-31T04:34:22.467Z,16.86
2022-07-31T04:36:48.969Z,16.91
2022-07-31T04:39:15.485Z,16.99
2022-07-31T04:41:41.947Z,17.07
2022-07-31T04:44:08.444Z,17.14
2022-07-31T04:46:34.907Z,17.23
2022-07-31T04:49:01.478Z,17.32
2022-07-31T04:51:28.104Z,17.43
2022-07-31T04:53:54.586Z,17.51
2022-07-31T04:56:37.376Z,17.59
2022-07-31T04:59:06.683Z,17.70
2022-07-31T05:01:33.742Z,17.80
2022-07-31T05:04:00.647Z,17.88
2022-07-31T05:06:41.102Z,17.96
2022-07-31T05:09:13.746Z,17.97
2022-07-31T05:11:45.650Z,18.06
2022-07-31T05:14:14.223Z,18.09
2022-07-31T05:16:40.883Z,18.11
2022-07-31T05:19:14.508Z,18.13
2022-07-31T05:21:53.274Z,18.15
2022-07-31T05:24:32.699Z,18.19
2022-07-31T05:27:00.835Z,18.23
2022-07-31T05:29:27.287Z,18.28
2022-07-31T05:31:59.977Z,18.33
2022-07-31T05:34:30.150Z,18.47
2022-07-31T05:36:58.322Z,18.61
2022-07-31T05:39:25.198Z,18.76
2022-07-31T05:41:52.704Z,18.95
2022-07-31T05:44:19.361Z,19.11
2022-07-31T05:46:45.873Z,19.29
2022-07-31T05:49:12.666Z,19.47
2022-07-31T05:51:42.494Z,19.64
2022-07-31T05:54:08.927Z,19.78
2022-07-31T05:56:35.376Z,19.90
2022-07-31T05:59:01.807Z,20.02
2022-07-31T06:01:28.353Z,20.16
2022-07-31T06:03:54.803Z,20.32
2022-07-31T06:06:21.452Z,20.46
2022-07-31T06:08:47.889Z,20.60
2022-07-31T06:11:14.310Z,20.76
2022-07-31T06:13:43.518Z,20.88
2022-07-31T06:16:16.173Z,21.10
2022-07-31T06:18:43.109Z,21.24
2022-07-31T06:21:09.881Z,21.37
2022-07-31T06:23:37.409Z,21.53
2022-07-31T06:26:04.345Z,21.66
2022-07-31T06:28:43.173Z,21.79
2022-07-31T06:31:21.998Z,21.96
2022-07-31T06:33:49.932Z,22.07
2022-07-31T06:36:17.786Z,22.16
2022-07-31T06:38:44.523Z,22.31
2022-07-31T06:41:10.927Z,22.45
2022-07-31T06:43:37.557Z,22.59
2022-07-31T06:46:04.013Z,22.69
2022-07-31T06:48:30.625Z,22.86
2022-07-31T06:51:27.964Z,22.97
2022-07-31T06:53:43.472Z,23.12
2022-07-31T06:56:10.136Z,23.19
2022-07-31T06:58:36.588Z,23.32
2022-07-31T07:01:03.199Z,23.43
2022-07-31T07:03:29.672Z,23.56
2022-07-31T07:05:56.103Z,23.65
2022-07-31T07:08:22.596Z,23.73
2022-07-31T07:10:49.487Z,23.79
2022-07-31T07:13:15.991Z,23.93
2022-07-31T07:15:42.411Z,23.98
2022-07-31T07:18:08.856Z,24.09
2022-07-31T07:20:35.285Z,24.16
2022-07-31T07:23:01.717Z,24.22
2022-07-31T07:25:28.793Z,24.28
2022-07-31T07:27:56.628Z,24.30
2022-07-31T07:30:23.704Z,24.32
2022-07-31T07:32:50.120Z,24.35
2022-07-31T07:35:16.678Z,24.35
2022-07-31T07:37:43.170Z,24.37
2022-07-31T07:40:09.983Z,24.36
2022-07-31T07:42:36.574Z,24.39
2022-07-31T07:45:08.106Z,24.41
2022-07-31T07:48:05.294Z,24.44
2022-07-31T07:50:22.727Z,24.51
2022-07-31T07:52:53.339Z,24.54
2022-07-31T07:55:19.755Z,24.62
2022-07-31T07:57:46.250Z,24.67
2022-07-31T08:00:13.616Z,24.74
2022-07-31T08:02:41.256Z,24.82
2022-07-31T08:05:07.823Z,24.87
2022-07-31T08:07:42.862Z,24.95
2022-07-31T08:10:09.892Z,24.96
2022-07-31T08:12:36.514Z,25.01
2022-07-31T08:15:04.430Z,25.07
2022-07-31T08:17:31.148Z,25.09
2022-07-31T08:19:57.633Z,25.09
2022-07-31T08:22:24.086Z,25.15
2022-07-31T08:24:50.564Z,25.20
2022-07-31T08:27:39.614Z,25.23
2022-07-31T08:30:07.205Z,25.34
2022-07-31T08:32:33.667Z,25.37
2022-07-31T08:35:00.223Z,25.40
2022-07-31T08:37:51.815Z,25.41
2022-07-31T08:40:13.123Z,25.45
2022-07-31T08:42:39.568Z,25.46
2022-07-31T08:45:07.990Z,25.46
2022-07-31T08:47:35.906Z,25.43
2022-07-31T08:50:06.450Z,25.41
2022-07-31T08:52:34.917Z,25.30
2022-07-31T08:55:06.356Z,25.20
2022-07-31T08:57:33.404Z,25.13
2022-07-31T08:59:59.818Z,25.06
2022-07-31T09:02:26.511Z,24.99
2022-07-31T09:04:53.094Z,24.93
2022-07-31T09:07:19.711Z,24.89
2022-07-31T09:09:51.552Z,24.87
2022-07-31T09:12:33.609Z,24.95
2022-07-31T09:15:00.935Z,24.95
2022-07-31T09:17:35.874Z,25.02
2022-07-31T09:20:04.317Z,25.02
2022-07-31T09:22:31.367Z,25.10
2022-07-31T09:25:12.853Z,25.20
2022-07-31T09:27:39.575Z,25.32
2022-07-31T09:30:07.679Z,25.37
2022-07-31T09:32:34.123Z,25.54
2022-07-31T09:35:14.455Z,25.78
2022-07-31T09:37:41.283Z,25.85
2022-07-31T09:40:09.275Z,26.03
2022-07-31T09:42:38.301Z,26.19
2022-07-31T09:45:23.024Z,26.40
2022-07-31T09:48:14.382Z,26.67
2022-07-31T09:50:58.511Z,26.86
2022-07-31T09:53:25.815Z,26.97
2022-07-31T09:55:53.892Z,27.24
2022-07-31T09:58:22.202Z,27.46
2022-07-31T10:00:52.419Z,27.73
2022-07-31T10:03:19.785Z,28.00
2022-07-31T10:05:47.550Z,28.21
2022-07-31T10:08:17.269Z,28.50
2022-07-31T10:10:45.065Z,28.72
2022-07-31T10:13:15.474Z,28.93
2022-07-31T10:15:45.492Z,29.01
2022-07-31T10:18:11.980Z,29.02
2022-07-31T10:20:42.075Z,29.14
2022-07-31T10:23:18.952Z,29.19
2022-07-31T10:25:54.472Z,29.18
2022-07-31T10:28:21.901Z,29.28
2022-07-31T10:30:49.209Z,29.35
2022-07-31T10:33:41.857Z,29.38
2022-07-31T10:36:09.171Z,29.64
2022-07-31T10:39:06.487Z,29.92
2022-07-31T10:41:51.828Z,30.07
2022-07-31T10:44:32.130Z,30.26
2022-07-31T10:47:12.133Z,30.60
2022-07-31T10:49:48.347Z,30.78
2022-07-31T10:52:29.229Z,30.96
2022-07-31T10:54:58.246Z,31.05
2022-07-31T10:57:27.106Z,31.11
2022-07-31T10:59:54.093Z,31.16
2022-07-31T11:02:32.083Z,31.24
2022-07-31T11:05:22.988Z,31.23
2022-07-31T11:08:01.501Z,31.16
2022-07-31T11:10:28.167Z,30.99
2022-07-31T11:13:08.360Z,31.01
2022-07-31T11:15:37.383Z,30.73
2022-07-31T11:18:25.374Z,30.76
2022-07-31T11:21:09.467Z,30.62
2022-07-31T11:23:55.640Z,30.55
2022-07-31T11:26:33.062Z,30.44
2022-07-31T11:30:01.488Z,30.50
2022-07-31T11:31:54.540Z,30.51
2022-07-31T11:34:21.081Z,30.52
2022-07-31T11:36:51.255Z,30.60
2022-07-31T11:39:18.541Z,30.62
2022-07-31T11:41:47.295Z,30.68
2022-07-31T11:44:20.731Z,30.84
2022-07-31T11:46:49.945Z,30.89
2022-07-31T11:49:39.206Z,31.02
2022-07-31T11:52:30.785Z,31.08
2022-07-31T11:55:13.379Z,31.30
2022-07-31T11:57:50.764Z,31.22
2022-07-31T12:00:26.769Z,31.31
2022-07-31T12:02:57.531Z,31.29
2022-07-31T12:05:38.731Z,31.29
2022-07-31T12:08:07.706Z,31.34
2022-07-31T12:10:34.457Z,31.39
2022-07-31T12:13:02.304Z,31.35
2022-07-31T12:15:29.114Z,31.39
2022-07-31T12:18:05.059Z,31.46
2022-07-31T12:20:36.991Z,31.38
2022-07-31T12:23:05.483Z,31.46
2022-07-31T12:25:42.663Z,31.49
2022-07-31T12:28:10.078Z,31.46
2022-07-31T12:30:36.685Z,31.47
2022-07-31T12:33:07.856Z,31.48
2022-07-31T12:35:56.242Z,31.47
2022-07-31T12:38:44.724Z,31.42
2022-07-31T12:41:13.470Z,31.38
2022-07-31T12:43:40.275Z,31.14
2022-07-31T12:46:19.101Z,31.08
2022-07-31T12:48:46.370Z,31.08
2022-07-31T12:51:13.159Z,30.90
2022-07-31T12:53:39.643Z,30.86
2022-07-31T12:56:11.381Z,30.80
2022-07-31T12:58:37.842Z,30.72
2022-07-31T13:01:04.503Z,30.61
2022-07-31T13:03:38.861Z,30.55
2022-07-31T13:06:13.216Z,30.41
2022-07-31T13:08:39.710Z,30.28
2022-07-31T13:11:06.146Z,30.14
2022-07-31T13:13:32.579Z,29.96
2022-07-31T13:15:59.027Z,29.81
2022-07-31T13:18:25.467Z,29.67
2022-07-31T13:20:51.896Z,29.58
2022-07-31T13:23:18.335Z,29.36
2022-07-31T13:25:44.789Z,29.27
2022-07-31T13:28:11.323Z,29.10
2022-07-31T13:30:38.592Z,28.95
2022-07-31T13:33:05.136Z,28.88
2022-07-31T13:35:32.607Z,28.78
2022-07-31T13:37:59.021Z,28.80
2022-07-31T13:40:44.617Z,28.82
2022-07-31T13:43:11.334Z,28.89
2022-07-31T13:45:38.305Z,28.90
2022-07-31T13:48:09.369Z,28.95
2022-07-31T13:50:39.874Z,28.99
2022-07-31T13:53:06.710Z,29.03
2022-07-31T13:55:33.330Z,29.09
2022-07-31T13:58:01.437Z,29.11
2022-07-31T14:00:29.380Z,29.15
2022-07-31T14:02:56.045Z,29.05
2022-07-31T14:05:24.324Z,28.96
2022-07-31T14:07:53.262Z,28.90
2022-07-31T14:10:21.517Z,28.78
2022-07-31T14:12:48.704Z,28.67
2022-07-31T14:15:16.504Z,28.59
2022-07-31T14:17:43.325Z,28.50
2022-07-31T14:20:10.220Z,28.40
2022-07-31T14:22:36.810Z,28.29
2022-07-31T14:25:04.149Z,28.20
2022-07-31T14:27:30.750Z,28.11
2022-07-31T14:29:57.224Z,28.00
2022-07-31T14:32:25.062Z,27.89
2022-07-31T14:34:52.106Z,27.80
2022-07-31T14:37:18.764Z,27.70
2022-07-31T14:39:45.233Z,27.59
2022-07-31T14:42:12.229Z,27.43
2022-07-31T14:44:41.881Z,27.28
2022-07-31T14:47:09.403Z,27.34
2022-07-31T14:50:09.526Z,26.88
2022-07-31T14:52:22.493Z,26.61
2022-07-31T14:54:49.109Z,26.37
2022-07-31T14:57:20.227Z,26.10
2022-07-31T14:59:49.060Z,25.84
2022-07-31T15:02:19.858Z,25.56
2022-07-31T15:04:48.526Z,25.26
2022-07-31T15:07:34.205Z,24.97
2022-07-31T15:10:02.064Z,24.65
2022-07-31T15:12:29.118Z,24.33
2022-07-31T15:14:55.499Z,24.07
2022-07-31T15:17:21.930Z,23.87
2022-07-31T15:19:48.398Z,23.67
2022-07-31T15:22:17.459Z,23.48
2022-07-31T15:24:48.286Z,23.33
2022-07-31T15:27:16.038Z,23.15
2022-07-31T15:30:03.333Z,22.99
2022-07-31T15:32:29.569Z,22.86
2022-07-31T15:34:56.036Z,22.76
2022-07-31T15:37:23.423Z,22.67
2022-07-31T15:40:02.962Z,22.60
2022-07-31T15:42:34.099Z,22.53
2022-07-31T15:45:00.767Z,22.47
2022-07-31T15:47:27.255Z,22.44
2022-07-31T15:49:53.746Z,22.44
2022-07-31T15:52:20.189Z,22.41
2022-07-31T15:54:47.136Z,22.40
2022-07-31T15:57:16.058Z,22.40
2022-07-31T15:59:42.708Z,22.40
2022-07-31T16:02:09.113Z,22.40
2022-07-31T16:04:51.652Z,22.41
2022-07-31T16:08:33.190Z,22.39
2022-07-31T16:10:15.577Z,22.38
2022-07-31T16:12:43.106Z,22.33
2022-07-31T16:15:12.225Z,22.34
2022-07-31T16:17:38.891Z,22.32
2022-07-31T16:20:11.793Z,22.30
2022-07-31T16:22:40.342Z,22.31
2022-07-31T16:25:09.768Z,22.32
2022-07-31T16:27:37.131Z,22.33
2022-07-31T16:30:04.822Z,22.34
2022-07-31T16:32:31.286Z,22.34
2022-07-31T16:35:00.939Z,22.38
2022-07-31T16:37:50.283Z,22.37
2022-07-31T16:40:30.397Z,22.38
2022-07-31T16:43:50.247Z,22.36
2022-07-31T16:45:53.434Z,22.37
2022-07-31T16:48:19.998Z,22.36
2022-07-31T16:50:48.358Z,22.35
2022-07-31T16:54:14.500Z,22.30
2022-07-31T16:56:07.000Z,22.19
2022-07-31T16:58:33.507Z,22.05
2022-07-31T17:01:00.086Z,21.94
2022-07-31T17:04:02.077Z,21.89
2022-07-31T17:06:13.014Z,21.77
2022-07-31T17:08:39.472Z,21.67
2022-07-31T17:11:05.969Z,21.66
2022-07-31T17:13:32.565Z,21.57
2022-07-31T17:15:59.046Z,21.54
2022-07-31T17:18:25.966Z,21.52
2022-07-31T17:20:56.266Z,21.48
2022-07-31T17:23:43.365Z,21.42
2022-07-31T17:26:21.173Z,21.33
2022-07-31T17:28:48.485Z,21.35
2022-07-31T17:31:14.887Z,21.28
2022-07-31T17:33:58.217Z,21.28
2022-07-31T17:36:27.657Z,21.23
2022-07-31T17:38:54.123Z,21.20
2022-07-31T17:41:24.787Z,21.16
2022-07-31T17:43:53.301Z,21.13
2022-07-31T17:46:22.135Z,21.10
2022-07-31T17:49:01.434Z,21.08
2022-07-31T17:51:27.924Z,20.97
2022-07-31T17:53:55.145Z,21.00
2022-07-31T17:56:26.251Z,20.97
2022-07-31T17:58:52.698Z,20.94
2022-07-31T18:01:19.166Z,20.90
2022-07-31T18:03:45.848Z,20.85
2022-07-31T18:06:12.299Z,20.82
2022-07-31T18:08:38.760Z,20.79
2022-07-31T18:11:06.500Z,20.80
2022-07-31T18:13:48.338Z,20.77
2022-07-31T18:16:18.719Z,20.77
2022-07-31T18:18:45.684Z,20.75
2022-07-31T18:21:13.475Z,20.74
2022-07-31T18:23:43.566Z,20.73
2022-07-31T18:26:14.301Z,20.74
2022-07-31T18:28:40.823Z,20.74
2022-07-31T18:31:32.687Z,20.75
2022-07-31T18:33:53.887Z,20.76
2022-07-31T18:36:21.224Z,20.75
2022-07-31T18:38:47.887Z,20.76
2022-07-31T18:41:14.500Z,20.75
2022-07-31T18:43:40.966Z,20.75
2022-07-31T18:46:07.401Z,20.71
2022-07-31T18:48:34.296Z,20.70
2022-07-31T18:51:04.762Z,20.75
2022-07-31T18:53:32.251Z,20.75
2022-07-31T18:55:58.702Z,20.72
2022-07-31T18:58:25.159Z,20.73
2022-07-31T19:00:55.118Z,20.66
2022-07-31T19:03:23.277Z,20.70
2022-07-31T19:05:50.845Z,20.68
2022-07-31T19:08:17.395Z,20.67
2022-07-31T19:10:43.955Z,20.65
2022-07-31T19:13:17.231Z,20.60
2022-07-31T19:15:47.093Z,20.64
2022-07-31T19:18:14.239Z,20.63
2022-07-31T19:20:56.391Z,20.59
2022-07-31T19:23:27.107Z,20.53
2022-07-31T19:26:03.520Z,20.58
2022-07-31T19:28:32.725Z,20.51
2022-07-31T19:30:59.230Z,20.54
2022-07-31T19:33:25.763Z,20.51
2022-07-31T19:35:58.348Z,20.47
2022-07-31T19:38:27.533Z,20.44
2022-07-31T19:40:54.464Z,20.40
2022-07-31T19:43:21.051Z,20.35
2022-07-31T19:46:10.508Z,20.33
2022-07-31T19:48:35.190Z,20.30
2022-07-31T19:51:01.659Z,20.25
2022-07-31T19:53:28.238Z,20.23
2022-07-31T19:55:54.971Z,20.20
2022-07-31T19:58:21.647Z,20.20
2022-07-31T20:00:48.161Z,20.19
2022-07-31T20:03:14.666Z,20.20
2022-07-31T20:05:41.203Z,20.18
2022-07-31T20:08:07.619Z,20.17
2022-07-31T20:10:34.130Z,20.16
2022-07-31T20:13:00.646Z,20.17
2022-07-31T20:15:27.433Z,20.14
2022-07-31T20:18:27.559Z,20.12
2022-07-31T20:20:59.910Z,20.10
2022-07-31T20:23:27.243Z,20.08
2022-07-31T20:25:53.795Z,20.08
2022-07-31T20:28:20.413Z,20.05
2022-07-31T20:30:46.886Z,20.06
2022-07-31T20:33:13.666Z,20.06
2022-07-31T20:35:49.018Z,20.05
2022-07-31T20:38:23.810Z,20.07
2022-07-31T20:40:53.689Z,20.05
2022-07-31T20:43:27.102Z,20.06
2022-07-31T20:45:57.262Z,20.01
2022-07-31T20:48:26.452Z,20.02
2022-07-31T20:50:53.030Z,19.95
2022-07-31T20:53:20.853Z,20.03
2022-07-31T20:55:49.705Z,20.01
2022-07-31T20:58:18.400Z,20.02
2022-07-31T21:00:45.503Z,19.98
2022-07-31T21:03:11.994Z,20.05
2022-07-31T21:05:38.484Z,20.05
2022-07-31T21:08:05.257Z,20.06
2022-07-31T21:10:32.056Z,20.08
2022-07-31T21:12:58.489Z,20.07
2022-07-31T21:15:42.525Z,20.09
2022-07-31T21:18:16.091Z,20.10
2022-07-31T21:20:49.612Z,20.08
2022-07-31T21:23:19.433Z,20.10
2022-07-31T21:25:46.059Z,20.10
2022-07-31T21:28:12.837Z,20.07
2022-07-31T21:30:40.121Z,20.12
2022-07-31T21:33:07.897Z,20.13
2022-07-31T21:35:36.632Z,20.11
2022-07-31T21:38:04.397Z,20.18
2022-07-31T21:40:31.681Z,20.17
2022-07-31T21:42:58.435Z,20.21
2022-07-31T21:45:31.395Z,20.22
2022-07-31T21:48:14.109Z,20.25
2022-07-31T21:50:45.503Z,20.27
2022-07-31T21:53:13.124Z,20.22
2022-07-31T21:55:40.646Z,20.28
2022-07-31T21:58:08.362Z,20.28
2022-07-31T22:00:35.228Z,20.32
2022-07-31T22:03:03.410Z,20.32
2022-07-31T22:05:49.054Z,20.34
2022-07-31T22:08:16.136Z,20.34
2022-07-31T22:10:42.801Z,20.35
2022-07-31T22:13:09.427Z,20.37
2022-07-31T22:15:58.539Z,20.39
2022-07-31T22:18:23.175Z,20.41
2022-07-31T22:20:53.204Z,20.42
2022-07-31T22:23:19.983Z,20.45
2022-07-31T22:25:48.948Z,20.44
2022-07-31T22:28:18.897Z,20.46
2022-07-31T22:30:45.886Z,20.48
2022-07-31T22:33:12.581Z,20.44
2022-07-31T22:35:40.582Z,20.47
2022-07-31T22:38:07.833Z,20.48
2022-07-31T22:40:34.690Z,20.50
2022-07-31T22:43:02.382Z,20.49
2022-07-31T22:45:30.232Z,20.49
2022-07-31T22:47:57.713Z,20.49
2022-07-31T22:50:24.800Z,20.49
2022-07-31T22:52:51.802Z,20.49
2022-07-31T22:55:18.446Z,20.51
2022-07-31T22:57:45.187Z,20.50
2022-07-31T23:00:13.910Z,20.49
2022-07-31T23:02:41.595Z,20.49
2022-07-31T23:05:09.003Z,20.50
2022-07-31T23:07:35.548Z,20.50
2022-07-31T23:10:02.267Z,20.49
2022-07-31T23:12:29.459Z,20.49
2022-07-31T23:14:56.191Z,20.50
2022-07-31T23:17:23.578Z,20.47
2022-07-31T23:19:54.360Z,20.51
2022-07-31T23:22:33.511Z,20.52
2022-07-31T23:25:08.911Z,20.55
2022-07-31T23:27:35.631Z,20.54
2022-07-31T23:30:02.113Z,20.54
2022-07-31T23:32:28.755Z,20.55
2022-07-31T23:34:55.274Z,20.54
2022-07-31T23:37:21.722Z,20.53
2022-07-31T23:39:48.289Z,20.50
2022-07-31T23:42:33.418Z,20.52
2022-07-31T23:44:59.924Z,20.51
2022-07-31T23:47:27.979Z,20.53
2022-07-31T23:50:11.823Z,20.51
2022-07-31T23:52:38.283Z,20.51
2022-07-31T23:55:05.190Z,20.51
2022-07-31T23:57:34.359Z,20.49
